This demonstration page uses our WeatherBlox Daily Observations layout. Learn more.

36.17497, -115.13722

Hourly Observations for February 24, 2015

Temp ( °F °C ) Dew Point ( °F °C ) Humidity (%) Winds ( mph kmh ) Pressure ( in mb ) Visibility ( mi km ) Precip ( " mm )
12:53 am 00:53 Cloudy 46 7.8 25 -3.9 44 44 N 14 22 30.21 1023 10 16.0934 0 0
1:53 am 01:53 Cloudy 46 7.8 25 -3.9 44 44 NNW 13 20 30.2 1023 10 16.0934 0 0
2:53 am 02:53 Cloudy 46 7.8 23 -5 40 40 N 10 17 30.2 1023 10 16.0934 0 0
3:53 am 03:53 Cloudy 46 7.8 21 -6.1 37 37 NNW 14 22 30.21 1023 10 16.0934 0 0
4:53 am 04:53 Cloudy 46 7.8 20 -6.7 35 35 N 10 17 30.22 1024 10 16.0934 0 0
5:53 am 05:53 Partly Cloudy 45 7.2 21 -6.1 39 39 N 12 19 30.23 1024 10 16.0934 0 0
6:53 am 06:53 Sunny 45 7.2 20 -6.7 37 37 NNW 14 22 30.24 1024 10 16.0934 0 0
7:53 am 07:53 Sunny 48 8.9 17 -8.3 29 29 N 18 30 30.25 1025 10 16.0934 0 0
8:53 am 08:53 Sunny 52 11.1 15 -9.4 23 23 N 22 35 30.27 1025 10 16.0934 0 0
9:53 am 09:53 Sunny 54 12.2 13 -10.6 19 19 NNW 21 33 30.26 1025 10 16.0934 0 0
10:53 am 10:53 Sunny 56 13.3 11 -11.7 17 17 N 17 28 30.24 1024 10 16.0934 0 0
11:53 am 11:53 Sunny 59 15 11 -11.7 15 15 N 18 30 30.22 1023 10 16.0934 0 0
12:53 pm 12:53 Sunny 61 16.1 9 -12.8 13 13 NNW 16 26 30.19 1022 10 16.0934 0 0
1:53 pm 13:53 Sunny 62 16.7 8 -13.3 12 12 NNW 17 28 30.17 1022 10 16.0934 0 0
2:53 pm 14:53 Sunny 64 17.8 6 -14.4 10 10 N 16 26 30.16 1021 10 16.0934 0 0
3:53 pm 15:53 Sunny 64 17.8 6 -14.4 10 10 NNW 14 22 30.14 1021 10 16.0934 0 0
4:53 pm 16:53 Sunny 64 17.8 7 -13.9 10 10 N 9 15 30.14 1021 10 16.0934 0 0
5:53 pm 17:53 Clear 61 16.1 11 -11.7 14 14 Calm 30.16 1021 10 16.0934 0 0
6:53 pm 18:53 Clear 55 12.8 21 -6.1 26 26 N 3 6 30.19 1022 10 16.0934 0 0
7:53 pm 19:53 Clear 54 12.2 21 -6.1 28 28 N 6 9 30.2 1023 10 16.0934 0 0
8:53 pm 20:53 Clear 53 11.7 22 -5.6 30 30 NE 5 7 30.2 1023 10 16.0934 0 0
9:53 pm 21:53 Clear 51 10.6 24 -4.4 35 35 Calm 30.2 1023 10 16.0934 0 0
10:53 pm 22:53 Clear 47 8.3 26 -3.3 44 44 NW 6 9 30.23 1024 10 16.0934 0 0
11:53 pm 23:53 Clear 45 7.2 29 -1.7 54 54 NNW 3 6 30.22 1024 10 16.0934 0 0

Powered by AerisWeather